sensor_id;sensor_type;location;lat;lon;timestamp;temperature;humidity
19340;HTU21D;9804;52.350;6.684;2022-08-19T00:02:02;20.33;-6.00
19340;HTU21D;9804;52.350;6.684;2022-08-19T00:04:33;20.27;-6.00
19340;HTU21D;9804;52.350;6.684;2022-08-19T00:07:03;20.17;-6.00
19340;HTU21D;9804;52.350;6.684;2022-08-19T00:09:28;20.05;-6.00
19340;HTU21D;9804;52.350;6.684;2022-08-19T00:11:54;19.98;-6.00
19340;HTU21D;9804;52.350;6.684;2022-08-19T00:14:20;19.88;-6.00
19340;HTU21D;9804;52.350;6.684;2022-08-19T00:16:47;19.73;-6.00
19340;HTU21D;9804;52.350;6.684;2022-08-19T00:19:14;19.73;-6.00
19340;HTU21D;9804;52.350;6.684;2022-08-19T00:21:39;19.79;-6.00
19340;HTU21D;9804;52.350;6.684;2022-08-19T00:24:07;19.77;-6.00
19340;HTU21D;9804;52.350;6.684;2022-08-19T00:26:33;19.67;-6.00
19340;HTU21D;9804;52.350;6.684;2022-08-19T00:28:59;19.54;-6.00
19340;HTU21D;9804;52.350;6.684;2022-08-19T00:31:25;19.45;-6.00
19340;HTU21D;9804;52.350;6.684;2022-08-19T00:33:53;19.39;-6.00
19340;HTU21D;9804;52.350;6.684;2022-08-19T00:36:18;19.35;-6.00
19340;HTU21D;9804;52.350;6.684;2022-08-19T00:38:44;19.37;-6.00
19340;HTU21D;9804;52.350;6.684;2022-08-19T00:41:15;19.30;-6.00
19340;HTU21D;9804;52.350;6.684;2022-08-19T00:43:42;19.36;-6.00
19340;HTU21D;9804;52.350;6.684;2022-08-19T00:46:08;19.33;-6.00
19340;HTU21D;9804;52.350;6.684;2022-08-19T00:48:34;19.27;-6.00
19340;HTU21D;9804;52.350;6.684;2022-08-19T00:51:00;19.26;-6.00
19340;HTU21D;9804;52.350;6.684;2022-08-19T00:53:27;19.25;-6.00
19340;HTU21D;9804;52.350;6.684;2022-08-19T00:55:54;19.26;-6.00
19340;HTU21D;9804;52.350;6.684;2022-08-19T00:58:24;19.31;-6.00
19340;HTU21D;9804;52.350;6.684;2022-08-19T01:00:52;19.29;-6.00
19340;HTU21D;9804;52.350;6.684;2022-08-19T01:03:19;19.29;-6.00
19340;HTU21D;9804;52.350;6.684;2022-08-19T01:05:47;19.16;-6.00
19340;HTU21D;9804;52.350;6.684;2022-08-19T01:08:15;19.09;-6.00
19340;HTU21D;9804;52.350;6.684;2022-08-19T01:10:45;19.07;-6.00
19340;HTU21D;9804;52.350;6.684;2022-08-19T01:13:14;19.12;-6.00
19340;HTU21D;9804;52.350;6.684;2022-08-19T01:15:43;19.22;-6.00
19340;HTU21D;9804;52.350;6.684;2022-08-19T01:18:11;19.18;-6.00
19340;HTU21D;9804;52.350;6.684;2022-08-19T01:20:37;19.05;-6.00
19340;HTU21D;9804;52.350;6.684;2022-08-19T01:23:03;19.03;-6.00
19340;HTU21D;9804;52.350;6.684;2022-08-19T01:25:32;19.00;-6.00
19340;HTU21D;9804;52.350;6.684;2022-08-19T01:27:58;18.99;-6.00
19340;HTU21D;9804;52.350;6.684;2022-08-19T01:30:27;18.91;-6.00
19340;HTU21D;9804;52.350;6.684;2022-08-19T01:32:54;18.89;-6.00
19340;HTU21D;9804;52.350;6.684;2022-08-19T01:35:20;18.93;-6.00
19340;HTU21D;9804;52.350;6.684;2022-08-19T01:37:53;18.87;-6.00
19340;HTU21D;9804;52.350;6.684;2022-08-19T01:40:21;18.79;-6.00
19340;HTU21D;9804;52.350;6.684;2022-08-19T01:42:48;18.61;-6.00
19340;HTU21D;9804;52.350;6.684;2022-08-19T01:45:14;18.61;-6.00
19340;HTU21D;9804;52.350;6.684;2022-08-19T01:47:40;18.58;-6.00
19340;HTU21D;9804;52.350;6.684;2022-08-19T01:50:07;18.62;-6.00
19340;HTU21D;9804;52.350;6.684;2022-08-19T01:52:38;18.71;-6.00
19340;HTU21D;9804;52.350;6.684;2022-08-19T01:55:08;18.67;-6.00
19340;HTU21D;9804;52.350;6.684;2022-08-19T01:57:34;18.77;-6.00
19340;HTU21D;9804;52.350;6.684;2022-08-19T01:59:59;18.78;-6.00
19340;HTU21D;9804;52.350;6.684;2022-08-19T02:02:27;18.77;-6.00
19340;HTU21D;9804;52.350;6.684;2022-08-19T02:04:52;18.67;-6.00
19340;HTU21D;9804;52.350;6.684;2022-08-19T02:07:20;18.70;-6.00
19340;HTU21D;9804;52.350;6.684;2022-08-19T02:09:47;18.70;-6.00
19340;HTU21D;9804;52.350;6.684;2022-08-19T02:12:13;18.78;-6.00
19340;HTU21D;9804;52.350;6.684;2022-08-19T02:14:39;18.71;-6.00
19340;HTU21D;9804;52.350;6.684;2022-08-19T02:17:04;18.69;-6.00
19340;HTU21D;9804;52.350;6.684;2022-08-19T02:19:30;18.56;-6.00
19340;HTU21D;9804;52.350;6.684;2022-08-19T02:21:57;18.65;-6.00
19340;HTU21D;9804;52.350;6.684;2022-08-19T02:24:23;18.64;-6.00
19340;HTU21D;9804;52.350;6.684;2022-08-19T02:26:49;18.63;-6.00
19340;HTU21D;9804;52.350;6.684;2022-08-19T02:29:14;18.58;-6.00
19340;HTU21D;9804;52.350;6.684;2022-08-19T02:31:39;18.52;-6.00
19340;HTU21D;9804;52.350;6.684;2022-08-19T02:34:05;18.48;-6.00
19340;HTU21D;9804;52.350;6.684;2022-08-19T02:36:30;18.59;-6.00
19340;HTU21D;9804;52.350;6.684;2022-08-19T02:38:56;18.69;-6.00
19340;HTU21D;9804;52.350;6.684;2022-08-19T02:41:27;18.69;-6.00
19340;HTU21D;9804;52.350;6.684;2022-08-19T02:43:54;18.57;-6.00
19340;HTU21D;9804;52.350;6.684;2022-08-19T02:46:23;18.51;-6.00
19340;HTU21D;9804;52.350;6.684;2022-08-19T02:48:51;18.44;-6.00
19340;HTU21D;9804;52.350;6.684;2022-08-19T02:51:23;18.35;-6.00
19340;HTU21D;9804;52.350;6.684;2022-08-19T02:53:48;18.34;-6.00
19340;HTU21D;9804;52.350;6.684;2022-08-19T02:56:14;18.40;-6.00
19340;HTU21D;9804;52.350;6.684;2022-08-19T02:58:40;18.46;-6.00
19340;HTU21D;9804;52.350;6.684;2022-08-19T03:01:06;18.50;-6.00
19340;HTU21D;9804;52.350;6.684;2022-08-19T03:03:32;18.62;-6.00
19340;HTU21D;9804;52.350;6.684;2022-08-19T03:06:09;18.65;-6.00
19340;HTU21D;9804;52.350;6.684;2022-08-19T03:08:36;18.56;-6.00
19340;HTU21D;9804;52.350;6.684;2022-08-19T03:11:02;18.44;-6.00
19340;HTU21D;9804;52.350;6.684;2022-08-19T03:13:28;18.41;-6.00
19340;HTU21D;9804;52.350;6.684;2022-08-19T03:15:53;18.43;-6.00
19340;HTU21D;9804;52.350;6.684;2022-08-19T03:18:19;18.37;-6.00
19340;HTU21D;9804;52.350;6.684;2022-08-19T03:20:48;18.34;-6.00
19340;HTU21D;9804;52.350;6.684;2022-08-19T03:23:14;18.30;-6.00
19340;HTU21D;9804;52.350;6.684;2022-08-19T03:25:42;18.17;-6.00
19340;HTU21D;9804;52.350;6.684;2022-08-19T03:28:09;18.20;-6.00
19340;HTU21D;9804;52.350;6.684;2022-08-19T03:30:35;18.20;-6.00
19340;HTU21D;9804;52.350;6.684;2022-08-19T03:33:00;18.21;-6.00
19340;HTU21D;9804;52.350;6.684;2022-08-19T03:35:27;18.25;-6.00
19340;HTU21D;9804;52.350;6.684;2022-08-19T03:37:52;18.14;-6.00
19340;HTU21D;9804;52.350;6.684;2022-08-19T03:40:18;18.10;-6.00
19340;HTU21D;9804;52.350;6.684;2022-08-19T03:42:44;18.18;-6.00
19340;HTU21D;9804;52.350;6.684;2022-08-19T03:45:09;18.23;-6.00
19340;HTU21D;9804;52.350;6.684;2022-08-19T03:47:35;18.25;-6.00
19340;HTU21D;9804;52.350;6.684;2022-08-19T03:50:02;18.10;-6.00
19340;HTU21D;9804;52.350;6.684;2022-08-19T03:52:28;18.07;-6.00
19340;HTU21D;9804;52.350;6.684;2022-08-19T03:54:53;17.98;-6.00
19340;HTU21D;9804;52.350;6.684;2022-08-19T03:57:18;17.93;-6.00
19340;HTU21D;9804;52.350;6.684;2022-08-19T03:59:44;17.99;-6.00
19340;HTU21D;9804;52.350;6.684;2022-08-19T04:02:11;18.05;-6.00
19340;HTU21D;9804;52.350;6.684;2022-08-19T04:04:39;18.10;-6.00
19340;HTU21D;9804;52.350;6.684;2022-08-19T04:07:05;18.12;-6.00
19340;HTU21D;9804;52.350;6.684;2022-08-19T04:09:30;18.15;-6.00
19340;HTU21D;9804;52.350;6.684;2022-08-19T04:11:57;18.02;-6.00
19340;HTU21D;9804;52.350;6.684;2022-08-19T04:14:28;17.95;-6.00
19340;HTU21D;9804;52.350;6.684;2022-08-19T04:16:55;17.93;-6.00
19340;HTU21D;9804;52.350;6.684;2022-08-19T04:19:21;17.81;-6.00
19340;HTU21D;9804;52.350;6.684;2022-08-19T04:21:50;17.81;-6.00
19340;HTU21D;9804;52.350;6.684;2022-08-19T04:24:17;17.87;-6.00
19340;HTU21D;9804;52.350;6.684;2022-08-19T04:26:43;17.88;-6.00
19340;HTU21D;9804;52.350;6.684;2022-08-19T04:29:15;17.82;-6.00
19340;HTU21D;9804;52.350;6.684;2022-08-19T04:31:42;17.69;-6.00
19340;HTU21D;9804;52.350;6.684;2022-08-19T04:34:10;17.82;-6.00
19340;HTU21D;9804;52.350;6.684;2022-08-19T04:36:37;17.92;-6.00
19340;HTU21D;9804;52.350;6.684;2022-08-19T04:39:10;17.92;-6.00
19340;HTU21D;9804;52.350;6.684;2022-08-19T04:41:36;17.68;-6.00
19340;HTU21D;9804;52.350;6.684;2022-08-19T04:44:20;17.82;-6.00
19340;HTU21D;9804;52.350;6.684;2022-08-19T04:46:47;17.85;-6.00
19340;HTU21D;9804;52.350;6.684;2022-08-19T04:49:18;17.80;-6.00
19340;HTU21D;9804;52.350;6.684;2022-08-19T04:51:46;17.76;-6.00
19340;HTU21D;9804;52.350;6.684;2022-08-19T04:54:16;17.80;-6.00
19340;HTU21D;9804;52.350;6.684;2022-08-19T04:56:42;17.82;-6.00
19340;HTU21D;9804;52.350;6.684;2022-08-19T04:59:08;17.89;-6.00
19340;HTU21D;9804;52.350;6.684;2022-08-19T05:01:34;17.78;-6.00
19340;HTU21D;9804;52.350;6.684;2022-08-19T05:04:03;17.85;-6.00
19340;HTU21D;9804;52.350;6.684;2022-08-19T05:06:30;17.84;-6.00
19340;HTU21D;9804;52.350;6.684;2022-08-19T05:08:59;17.92;-6.00
19340;HTU21D;9804;52.350;6.684;2022-08-19T05:11:27;17.96;-6.00
19340;HTU21D;9804;52.350;6.684;2022-08-19T05:13:54;17.96;-6.00
19340;HTU21D;9804;52.350;6.684;2022-08-19T05:16:21;17.94;-6.00
19340;HTU21D;9804;52.350;6.684;2022-08-19T05:18:47;18.02;-6.00
19340;HTU21D;9804;52.350;6.684;2022-08-19T05:21:31;18.07;-6.00
19340;HTU21D;9804;52.350;6.684;2022-08-19T05:24:16;18.09;-6.00
19340;HTU21D;9804;52.350;6.684;2022-08-19T05:26:44;17.96;-6.00
19340;HTU21D;9804;52.350;6.684;2022-08-19T05:29:12;17.97;-6.00
19340;HTU21D;9804;52.350;6.684;2022-08-19T05:31:38;18.07;-6.00
19340;HTU21D;9804;52.350;6.684;2022-08-19T05:34:04;18.02;-6.00
19340;HTU21D;9804;52.350;6.684;2022-08-19T05:36:35;17.96;-6.00
19340;HTU21D;9804;52.350;6.684;2022-08-19T05:39:02;17.94;-6.00
19340;HTU21D;9804;52.350;6.684;2022-08-19T05:41:28;17.93;-6.00
19340;HTU21D;9804;52.350;6.684;2022-08-19T05:43:57;17.98;-6.00
19340;HTU21D;9804;52.350;6.684;2022-08-19T05:46:23;18.17;-6.00
19340;HTU21D;9804;52.350;6.684;2022-08-19T05:48:48;18.22;-6.00
19340;HTU21D;9804;52.350;6.684;2022-08-19T05:51:15;18.30;-6.00
19340;HTU21D;9804;52.350;6.684;2022-08-19T05:53:41;18.34;-6.00
19340;HTU21D;9804;52.350;6.684;2022-08-19T05:56:08;18.38;-6.00
19340;HTU21D;9804;52.350;6.684;2022-08-19T05:58:35;18.43;-6.00
19340;HTU21D;9804;52.350;6.684;2022-08-19T06:01:00;18.61;-6.00
19340;HTU21D;9804;52.350;6.684;2022-08-19T06:03:33;18.70;-6.00
19340;HTU21D;9804;52.350;6.684;2022-08-19T06:05:59;18.83;-6.00
19340;HTU21D;9804;52.350;6.684;2022-08-19T06:08:28;18.89;-6.00
19340;HTU21D;9804;52.350;6.684;2022-08-19T06:10:54;19.16;-6.00
19340;HTU21D;9804;52.350;6.684;2022-08-19T06:13:19;19.32;-6.00
19340;HTU21D;9804;52.350;6.684;2022-08-19T06:15:45;19.42;-6.00
19340;HTU21D;9804;52.350;6.684;2022-08-19T06:18:12;19.59;-6.00
19340;HTU21D;9804;52.350;6.684;2022-08-19T06:20:38;19.60;-6.00
19340;HTU21D;9804;52.350;6.684;2022-08-19T06:23:03;19.77;-6.00
19340;HTU21D;9804;52.350;6.684;2022-08-19T06:25:28;20.01;-6.00
19340;HTU21D;9804;52.350;6.684;2022-08-19T06:27:54;20.24;-6.00
19340;HTU21D;9804;52.350;6.684;2022-08-19T06:30:19;20.36;-6.00
19340;HTU21D;9804;52.350;6.684;2022-08-19T06:32:44;20.54;-6.00
19340;HTU21D;9804;52.350;6.684;2022-08-19T06:35:10;20.66;-6.00
19340;HTU21D;9804;52.350;6.684;2022-08-19T06:37:37;20.64;-6.00
19340;HTU21D;9804;52.350;6.684;2022-08-19T06:40:03;20.83;-6.00
19340;HTU21D;9804;52.350;6.684;2022-08-19T06:42:28;20.90;-6.00
19340;HTU21D;9804;52.350;6.684;2022-08-19T06:44:54;21.06;-6.00
19340;HTU21D;9804;52.350;6.684;2022-08-19T06:47:21;20.99;-6.00
19340;HTU21D;9804;52.350;6.684;2022-08-19T06:49:46;21.22;-6.00
19340;HTU21D;9804;52.350;6.684;2022-08-19T06:52:12;21.10;-6.00
19340;HTU21D;9804;52.350;6.684;2022-08-19T06:54:38;21.35;-6.00
19340;HTU21D;9804;52.350;6.684;2022-08-19T06:57:05;21.53;-6.00
19340;HTU21D;9804;52.350;6.684;2022-08-19T06:59:32;21.66;-6.00
19340;HTU21D;9804;52.350;6.684;2022-08-19T07:02:00;21.75;-6.00
19340;HTU21D;9804;52.350;6.684;2022-08-19T07:04:28;21.73;-6.00
19340;HTU21D;9804;52.350;6.684;2022-08-19T07:07:04;21.87;-6.00
19340;HTU21D;9804;52.350;6.684;2022-08-19T07:09:32;21.96;-6.00
19340;HTU21D;9804;52.350;6.684;2022-08-19T07:11:58;22.23;-6.00
19340;HTU21D;9804;52.350;6.684;2022-08-19T07:14:26;22.33;-6.00
19340;HTU21D;9804;52.350;6.684;2022-08-19T07:16:54;22.31;-6.00
19340;HTU21D;9804;52.350;6.684;2022-08-19T07:19:21;22.43;-6.00
19340;HTU21D;9804;52.350;6.684;2022-08-19T07:21:49;22.42;-6.00
19340;HTU21D;9804;52.350;6.684;2022-08-19T07:24:17;22.49;-6.00
19340;HTU21D;9804;52.350;6.684;2022-08-19T07:26:43;22.63;-6.00
19340;HTU21D;9804;52.350;6.684;2022-08-19T07:29:10;22.72;-6.00
19340;HTU21D;9804;52.350;6.684;2022-08-19T07:31:36;22.64;-6.00
19340;HTU21D;9804;52.350;6.684;2022-08-19T07:34:04;22.53;-6.00
19340;HTU21D;9804;52.350;6.684;2022-08-19T07:36:34;22.52;-6.00
19340;HTU21D;9804;52.350;6.684;2022-08-19T07:39:04;22.71;-6.00
19340;HTU21D;9804;52.350;6.684;2022-08-19T07:41:30;23.07;-6.00
19340;HTU21D;9804;52.350;6.684;2022-08-19T07:43:57;22.88;-6.00
19340;HTU21D;9804;52.350;6.684;2022-08-19T07:46:22;22.87;-6.00
19340;HTU21D;9804;52.350;6.684;2022-08-19T07:48:49;23.16;-6.00
19340;HTU21D;9804;52.350;6.684;2022-08-19T07:51:18;23.12;-6.00
19340;HTU21D;9804;52.350;6.684;2022-08-19T07:53:45;23.41;-6.00
19340;HTU21D;9804;52.350;6.684;2022-08-19T07:56:12;23.12;-6.00
19340;HTU21D;9804;52.350;6.684;2022-08-19T07:58:40;23.16;-6.00
19340;HTU21D;9804;52.350;6.684;2022-08-19T08:01:07;23.59;-6.00
19340;HTU21D;9804;52.350;6.684;2022-08-19T08:03:33;23.41;-6.00
19340;HTU21D;9804;52.350;6.684;2022-08-19T08:06:17;23.89;-6.00
19340;HTU21D;9804;52.350;6.684;2022-08-19T08:09:03;23.94;-6.00
19340;HTU21D;9804;52.350;6.684;2022-08-19T08:11:49;23.95;-6.00
19340;HTU21D;9804;52.350;6.684;2022-08-19T08:14:18;23.68;-6.00
19340;HTU21D;9804;52.350;6.684;2022-08-19T08:16:44;24.10;-6.00
19340;HTU21D;9804;52.350;6.684;2022-08-19T08:19:11;24.43;-6.00
19340;HTU21D;9804;52.350;6.684;2022-08-19T08:21:36;24.27;-6.00
19340;HTU21D;9804;52.350;6.684;2022-08-19T08:24:02;24.38;-6.00
19340;HTU21D;9804;52.350;6.684;2022-08-19T08:26:27;24.43;-6.00
19340;HTU21D;9804;52.350;6.684;2022-08-19T08:28:53;24.49;-6.00
19340;HTU21D;9804;52.350;6.684;2022-08-19T08:31:19;24.80;-6.00
19340;HTU21D;9804;52.350;6.684;2022-08-19T08:33:46;24.71;-6.00
19340;HTU21D;9804;52.350;6.684;2022-08-19T08:36:12;25.27;-6.00
19340;HTU21D;9804;52.350;6.684;2022-08-19T08:38:39;25.38;-6.00
19340;HTU21D;9804;52.350;6.684;2022-08-19T08:41:28;25.22;-6.00
19340;HTU21D;9804;52.350;6.684;2022-08-19T08:43:57;25.52;-6.00
19340;HTU21D;9804;52.350;6.684;2022-08-19T08:46:36;25.66;-6.00
19340;HTU21D;9804;52.350;6.684;2022-08-19T08:52:07;25.86;-6.00
19340;HTU21D;9804;52.350;6.684;2022-08-19T08:54:41;25.58;-6.00
19340;HTU21D;9804;52.350;6.684;2022-08-19T08:57:12;25.27;-6.00
19340;HTU21D;9804;52.350;6.684;2022-08-19T08:59:40;25.65;-6.00
19340;HTU21D;9804;52.350;6.684;2022-08-19T09:02:07;26.11;-6.00
19340;HTU21D;9804;52.350;6.684;2022-08-19T09:04:34;25.92;-6.00
19340;HTU21D;9804;52.350;6.684;2022-08-19T09:10:22;26.38;-6.00
19340;HTU21D;9804;52.350;6.684;2022-08-19T09:15:46;26.64;-6.00
19340;HTU21D;9804;52.350;6.684;2022-08-19T09:18:13;26.68;-6.00
19340;HTU21D;9804;52.350;6.684;2022-08-19T09:20:39;26.65;-6.00
19340;HTU21D;9804;52.350;6.684;2022-08-19T09:23:04;26.34;-6.00
19340;HTU21D;9804;52.350;6.684;2022-08-19T09:25:30;26.40;-6.00
19340;HTU21D;9804;52.350;6.684;2022-08-19T09:27:57;26.43;-6.00
19340;HTU21D;9804;52.350;6.684;2022-08-19T09:30:25;25.96;-6.00
19340;HTU21D;9804;52.350;6.684;2022-08-19T09:32:51;26.96;-6.00
19340;HTU21D;9804;52.350;6.684;2022-08-19T09:35:18;27.07;-6.00
19340;HTU21D;9804;52.350;6.684;2022-08-19T09:37:44;27.04;-6.00
19340;HTU21D;9804;52.350;6.684;2022-08-19T09:40:10;26.30;-6.00
19340;HTU21D;9804;52.350;6.684;2022-08-19T09:42:36;26.41;-6.00
19340;HTU21D;9804;52.350;6.684;2022-08-19T09:45:02;27.32;-6.00
19340;HTU21D;9804;52.350;6.684;2022-08-19T09:47:28;27.24;-6.00
19340;HTU21D;9804;52.350;6.684;2022-08-19T09:49:53;27.04;-6.00
19340;HTU21D;9804;52.350;6.684;2022-08-19T09:52:20;26.73;-6.00
19340;HTU21D;9804;52.350;6.684;2022-08-19T09:54:45;26.45;-6.00
19340;HTU21D;9804;52.350;6.684;2022-08-19T09:57:10;27.28;-6.00
19340;HTU21D;9804;52.350;6.684;2022-08-19T09:59:36;26.82;-6.00
19340;HTU21D;9804;52.350;6.684;2022-08-19T10:02:02;27.35;-6.00
19340;HTU21D;9804;52.350;6.684;2022-08-19T10:04:27;27.29;-6.00
19340;HTU21D;9804;52.350;6.684;2022-08-19T10:07:13;26.93;-6.00
19340;HTU21D;9804;52.350;6.684;2022-08-19T10:09:38;26.98;-6.00
19340;HTU21D;9804;52.350;6.684;2022-08-19T10:12:06;27.30;-6.00
19340;HTU21D;9804;52.350;6.684;2022-08-19T10:14:32;27.82;-6.00
19340;HTU21D;9804;52.350;6.684;2022-08-19T10:16:58;28.17;-6.00
19340;HTU21D;9804;52.350;6.684;2022-08-19T10:19:25;28.64;-6.00
19340;HTU21D;9804;52.350;6.684;2022-08-19T10:21:51;28.34;-6.00
19340;HTU21D;9804;52.350;6.684;2022-08-19T10:24:16;28.61;-6.00
19340;HTU21D;9804;52.350;6.684;2022-08-19T10:26:41;28.84;-6.00
19340;HTU21D;9804;52.350;6.684;2022-08-19T10:29:10;29.26;-6.00
19340;HTU21D;9804;52.350;6.684;2022-08-19T10:31:37;28.94;-6.00
19340;HTU21D;9804;52.350;6.684;2022-08-19T10:34:03;28.86;-6.00
19340;HTU21D;9804;52.350;6.684;2022-08-19T10:36:31;29.35;-6.00
19340;HTU21D;9804;52.350;6.684;2022-08-19T10:38:59;29.56;-6.00
19340;HTU21D;9804;52.350;6.684;2022-08-19T10:41:29;29.92;-6.00
19340;HTU21D;9804;52.350;6.684;2022-08-19T10:43:57;30.16;-6.00
19340;HTU21D;9804;52.350;6.684;2022-08-19T10:46:24;29.49;-6.00
19340;HTU21D;9804;52.350;6.684;2022-08-19T10:48:50;29.85;-6.00
19340;HTU21D;9804;52.350;6.684;2022-08-19T10:51:16;29.78;-6.00
19340;HTU21D;9804;52.350;6.684;2022-08-19T10:54:01;29.60;-6.00
19340;HTU21D;9804;52.350;6.684;2022-08-19T10:56:27;29.90;-6.00
19340;HTU21D;9804;52.350;6.684;2022-08-19T10:59:11;29.74;-6.00
19340;HTU21D;9804;52.350;6.684;2022-08-19T11:01:39;30.12;-6.00
19340;HTU21D;9804;52.350;6.684;2022-08-19T11:04:05;29.90;-6.00
19340;HTU21D;9804;52.350;6.684;2022-08-19T11:06:33;29.38;-6.00
19340;HTU21D;9804;52.350;6.684;2022-08-19T11:08:59;30.11;-6.00
19340;HTU21D;9804;52.350;6.684;2022-08-19T11:11:26;30.00;-6.00
19340;HTU21D;9804;52.350;6.684;2022-08-19T11:13:51;28.90;-6.00
19340;HTU21D;9804;52.350;6.684;2022-08-19T11:16:20;28.87;-6.00
19340;HTU21D;9804;52.350;6.684;2022-08-19T11:18:49;29.28;-6.00
19340;HTU21D;9804;52.350;6.684;2022-08-19T11:21:18;29.45;-6.00
19340;HTU21D;9804;52.350;6.684;2022-08-19T11:23:46;29.53;-6.00
19340;HTU21D;9804;52.350;6.684;2022-08-19T11:26:12;30.35;-6.00
19340;HTU21D;9804;52.350;6.684;2022-08-19T11:28:38;30.33;-6.00
19340;HTU21D;9804;52.350;6.684;2022-08-19T11:31:08;29.98;-6.00
19340;HTU21D;9804;52.350;6.684;2022-08-19T11:33:34;29.43;-6.00
19340;HTU21D;9804;52.350;6.684;2022-08-19T11:35:59;29.32;-6.00
19340;HTU21D;9804;52.350;6.684;2022-08-19T11:38:26;29.17;-6.00
19340;HTU21D;9804;52.350;6.684;2022-08-19T11:40:58;29.62;-6.00
19340;HTU21D;9804;52.350;6.684;2022-08-19T11:43:24;30.13;-6.00
19340;HTU21D;9804;52.350;6.684;2022-08-19T11:45:51;30.39;-6.00
19340;HTU21D;9804;52.350;6.684;2022-08-19T11:48:17;31.33;-6.00
19340;HTU21D;9804;52.350;6.684;2022-08-19T11:50:47;30.82;-6.00
19340;HTU21D;9804;52.350;6.684;2022-08-19T11:53:12;31.50;-6.00
19340;HTU21D;9804;52.350;6.684;2022-08-19T11:55:38;30.77;-6.00
19340;HTU21D;9804;52.350;6.684;2022-08-19T11:58:05;31.30;-6.00
19340;HTU21D;9804;52.350;6.684;2022-08-19T12:00:32;31.40;-6.00
19340;HTU21D;9804;52.350;6.684;2022-08-19T12:02:59;31.52;-6.00
19340;HTU21D;9804;52.350;6.684;2022-08-19T12:05:24;31.72;-6.00
19340;HTU21D;9804;52.350;6.684;2022-08-19T12:07:49;31.60;-6.00
19340;HTU21D;9804;52.350;6.684;2022-08-19T12:10:15;31.99;-6.00
19340;HTU21D;9804;52.350;6.684;2022-08-19T12:12:42;30.80;-6.00
19340;HTU21D;9804;52.350;6.684;2022-08-19T12:15:10;30.75;-6.00
19340;HTU21D;9804;52.350;6.684;2022-08-19T12:17:37;30.69;-6.00
19340;HTU21D;9804;52.350;6.684;2022-08-19T12:20:04;30.54;-6.00
19340;HTU21D;9804;52.350;6.684;2022-08-19T12:22:30;31.09;-6.00
19340;HTU21D;9804;52.350;6.684;2022-08-19T12:24:55;31.22;-6.00
19340;HTU21D;9804;52.350;6.684;2022-08-19T12:27:21;31.55;-6.00
19340;HTU21D;9804;52.350;6.684;2022-08-19T12:29:46;32.12;-6.00
19340;HTU21D;9804;52.350;6.684;2022-08-19T12:32:12;31.20;-6.00
19340;HTU21D;9804;52.350;6.684;2022-08-19T12:34:38;31.48;-6.00
19340;HTU21D;9804;52.350;6.684;2022-08-19T12:37:05;32.00;-6.00
19340;HTU21D;9804;52.350;6.684;2022-08-19T12:39:41;31.60;-6.00
19340;HTU21D;9804;52.350;6.684;2022-08-19T12:42:08;30.22;-6.00
19340;HTU21D;9804;52.350;6.684;2022-08-19T12:44:36;30.24;-6.00
19340;HTU21D;9804;52.350;6.684;2022-08-19T12:47:01;30.52;-6.00
19340;HTU21D;9804;52.350;6.684;2022-08-19T12:49:28;30.92;-6.00
19340;HTU21D;9804;52.350;6.684;2022-08-19T12:51:54;31.10;-6.00
19340;HTU21D;9804;52.350;6.684;2022-08-19T12:54:19;30.37;-6.00
19340;HTU21D;9804;52.350;6.684;2022-08-19T12:56:45;31.04;-6.00
19340;HTU21D;9804;52.350;6.684;2022-08-19T12:59:10;30.42;-6.00
19340;HTU21D;9804;52.350;6.684;2022-08-19T13:01:37;30.47;-6.00
19340;HTU21D;9804;52.350;6.684;2022-08-19T13:04:03;30.89;-6.00
19340;HTU21D;9804;52.350;6.684;2022-08-19T13:06:28;31.53;-6.00
19340;HTU21D;9804;52.350;6.684;2022-08-19T13:08:54;30.76;-6.00
19340;HTU21D;9804;52.350;6.684;2022-08-19T13:11:20;31.14;-6.00
19340;HTU21D;9804;52.350;6.684;2022-08-19T13:13:50;31.16;-6.00
19340;HTU21D;9804;52.350;6.684;2022-08-19T13:16:17;31.41;-6.00
19340;HTU21D;9804;52.350;6.684;2022-08-19T13:18:45;31.40;-6.00
19340;HTU21D;9804;52.350;6.684;2022-08-19T13:21:12;31.90;-6.00
19340;HTU21D;9804;52.350;6.684;2022-08-19T13:23:38;31.64;-6.00
19340;HTU21D;9804;52.350;6.684;2022-08-19T13:26:06;31.39;-6.00
19340;HTU21D;9804;52.350;6.684;2022-08-19T13:28:33;31.57;-6.00
19340;HTU21D;9804;52.350;6.684;2022-08-19T13:31:20;31.34;-6.00
19340;HTU21D;9804;52.350;6.684;2022-08-19T13:34:04;31.60;-6.00
19340;HTU21D;9804;52.350;6.684;2022-08-19T13:36:34;31.28;-6.00
19340;HTU21D;9804;52.350;6.684;2022-08-19T13:39:00;31.66;-6.00
19340;HTU21D;9804;52.350;6.684;2022-08-19T13:41:26;32.24;-6.00
19340;HTU21D;9804;52.350;6.684;2022-08-19T13:43:52;32.00;-6.00
19340;HTU21D;9804;52.350;6.684;2022-08-19T13:46:17;32.45;-6.00
19340;HTU21D;9804;52.350;6.684;2022-08-19T13:48:42;32.02;-6.00
19340;HTU21D;9804;52.350;6.684;2022-08-19T13:51:09;31.72;-6.00
19340;HTU21D;9804;52.350;6.684;2022-08-19T13:53:36;31.80;-6.00
19340;HTU21D;9804;52.350;6.684;2022-08-19T13:56:06;31.40;-6.00
19340;HTU21D;9804;52.350;6.684;2022-08-19T13:58:32;31.75;-6.00
19340;HTU21D;9804;52.350;6.684;2022-08-19T14:00:57;30.83;-6.00
19340;HTU21D;9804;52.350;6.684;2022-08-19T14:03:24;30.45;-6.00
19340;HTU21D;9804;52.350;6.684;2022-08-19T14:05:49;31.09;-6.00
19340;HTU21D;9804;52.350;6.684;2022-08-19T14:08:15;30.95;-6.00
19340;HTU21D;9804;52.350;6.684;2022-08-19T14:10:40;31.59;-6.00
19340;HTU21D;9804;52.350;6.684;2022-08-19T14:13:07;32.03;-6.00
19340;HTU21D;9804;52.350;6.684;2022-08-19T14:15:33;31.95;-6.00
19340;HTU21D;9804;52.350;6.684;2022-08-19T14:17:59;32.13;-6.00
19340;HTU21D;9804;52.350;6.684;2022-08-19T14:20:25;31.99;-6.00
19340;HTU21D;9804;52.350;6.684;2022-08-19T14:22:50;31.81;-6.00
19340;HTU21D;9804;52.350;6.684;2022-08-19T14:25:19;31.25;-6.00
19340;HTU21D;9804;52.350;6.684;2022-08-19T14:27:45;31.16;-6.00
19340;HTU21D;9804;52.350;6.684;2022-08-19T14:30:13;31.34;-6.00
19340;HTU21D;9804;52.350;6.684;2022-08-19T14:32:39;31.59;-6.00
19340;HTU21D;9804;52.350;6.684;2022-08-19T14:35:05;31.92;-6.00
19340;HTU21D;9804;52.350;6.684;2022-08-19T14:37:33;32.35;-6.00
19340;HTU21D;9804;52.350;6.684;2022-08-19T14:39:59;31.92;-6.00
19340;HTU21D;9804;52.350;6.684;2022-08-19T14:42:24;31.92;-6.00
19340;HTU21D;9804;52.350;6.684;2022-08-19T14:44:50;31.50;-6.00
19340;HTU21D;9804;52.350;6.684;2022-08-19T14:47:15;31.44;-6.00
19340;HTU21D;9804;52.350;6.684;2022-08-19T14:49:41;31.98;-6.00
19340;HTU21D;9804;52.350;6.684;2022-08-19T14:52:07;31.50;-6.00
19340;HTU21D;9804;52.350;6.684;2022-08-19T14:54:33;31.80;-6.00
19340;HTU21D;9804;52.350;6.684;2022-08-19T14:56:59;31.63;-6.00
19340;HTU21D;9804;52.350;6.684;2022-08-19T14:59:24;31.51;-6.00
19340;HTU21D;9804;52.350;6.684;2022-08-19T15:01:50;30.98;-6.00
19340;HTU21D;9804;52.350;6.684;2022-08-19T15:04:15;31.48;-6.00
19340;HTU21D;9804;52.350;6.684;2022-08-19T15:06:41;31.43;-6.00
19340;HTU21D;9804;52.350;6.684;2022-08-19T15:09:07;31.35;-6.00
19340;HTU21D;9804;52.350;6.684;2022-08-19T15:11:33;31.41;-6.00
19340;HTU21D;9804;52.350;6.684;2022-08-19T15:13:59;31.85;-6.00
19340;HTU21D;9804;52.350;6.684;2022-08-19T15:16:26;32.10;-6.00
19340;HTU21D;9804;52.350;6.684;2022-08-19T15:18:54;32.18;-6.00
19340;HTU21D;9804;52.350;6.684;2022-08-19T15:21:20;32.89;-6.00
19340;HTU21D;9804;52.350;6.684;2022-08-19T15:23:47;32.19;-6.00
19340;HTU21D;9804;52.350;6.684;2022-08-19T15:26:13;31.92;-6.00
19340;HTU21D;9804;52.350;6.684;2022-08-19T15:28:40;31.48;-6.00
19340;HTU21D;9804;52.350;6.684;2022-08-19T15:31:06;31.95;-6.00
19340;HTU21D;9804;52.350;6.684;2022-08-19T15:33:32;31.18;-6.00
19340;HTU21D;9804;52.350;6.684;2022-08-19T15:36:00;30.80;-6.00
19340;HTU21D;9804;52.350;6.684;2022-08-19T15:38:25;30.62;-6.00
19340;HTU21D;9804;52.350;6.684;2022-08-19T15:40:52;30.09;-6.00